Time;durP1;ratioP1;P1;durP2;ratioP2;P2;SDS_P1;SDS_P2;PMS_P1;PMS_P2;Temp;Humidity;BMP_temperature;BMP_pressure;BME280_temperature;BME280_humidity;BME280_pressure;Samples;Min_cycle;Max_cycle;Signal;HPM_P1;HPM_P2
2023/07/17 00:00:11;;;;;;;4.68;2.70;;;;;;;;;;10491338;28;20036;-75
2023/07/17 00:05:16;;;;;;;8.02;3.13;;;;;;;;;;10485193;28;20047;-76
2023/07/17 00:10:18;;;;;;;4.65;2.72;;;;;;;;;;10484669;28;20084;-76
2023/07/17 00:15:21;;;;;;;;;;;;;;;;;;10479425;28;20046;-75
2023/07/17 00:20:26;;;;;;;5.30;3.07;;;;;;;;;;10480475;28;19920;-76
2023/07/17 00:25:29;;;;;;;7.28;2.85;;;;;;;;;;10466077;28;20063;-76
2023/07/17 00:30:31;;;;;;;;;;;;;;;;;;10479385;28;20060;-77
2023/07/17 00:35:35;;;;;;;6.32;2.90;;;;;;;;;;10482674;28;19934;-76
2023/07/17 00:40:38;;;;;;;4.78;2.85;;;;;;;;;;10484018;28;20579;-76
2023/07/17 00:45:41;;;;;;;;;;;;;;;;;;10482563;28;20096;-77
2023/07/17 00:50:45;;;;;;;6.70;3.20;;;;;;;;;;10478657;28;20353;-77
2023/07/17 00:55:48;;;;;;;6.88;3.33;;;;;;;;;;10483127;28;20040;-76
2023/07/17 01:00:50;;;;;;;5.05;3.00;;;;;;;;;;10477068;28;20493;-76
2023/07/17 01:05:54;;;;;;;6.60;3.40;;;;;;;;;;10476086;28;20048;-76
2023/07/17 01:10:57;;;;;;;6.82;3.53;;;;;;;;;;10485905;28;20048;-78
2023/07/17 01:16:00;;;;;;;;;;;;;;;;;;10495270;28;20129;-77
2023/07/17 01:21:07;;;;;;;2.97;1.77;;;;;;;;;;10480496;28;20760;-78
2023/07/17 01:26:15;;;;;;;5.63;3.30;;;;;;;;;;10464335;28;20405;-78
2023/07/17 01:31:18;;;;;;;4.85;3.10;;;;;;;;;;10485989;28;20428;-77
2023/07/17 01:36:21;;;;;;;6.05;3.35;;;;;;;;;;10485078;28;20046;-77
2023/07/17 01:41:25;;;;;;;7.70;3.20;;;;;;;;;;10477478;28;20047;-77
2023/07/17 01:46:28;;;;;;;8.77;3.05;;;;;;;;;;10479918;28;20115;-77
2023/07/17 01:51:30;;;;;;;3.80;2.60;;;;;;;;;;10483535;28;20040;-77
2023/07/17 01:56:34;;;;;;;7.43;3.03;;;;;;;;;;10479754;28;20044;-76
2023/07/17 02:01:37;;;;;;;6.90;3.13;;;;;;;;;;10476668;28;20133;-75
2023/07/17 02:06:40;;;;;;;4.32;2.92;;;;;;;;;;10483078;28;20485;-76
2023/07/17 02:11:44;;;;;;;6.13;2.83;;;;;;;;;;10473497;28;20051;-75
2023/07/17 02:16:47;;;;;;;4.78;2.60;;;;;;;;;;10480308;28;20044;-76
2023/07/17 02:21:49;;;;;;;;;;;;;;;;;;10480420;28;20053;-76
2023/07/17 02:26:54;;;;;;;4.25;2.60;;;;;;;;;;10481317;28;20394;-76
2023/07/17 02:31:56;;;;;;;3.83;2.63;;;;;;;;;;10484064;28;20132;-76
2023/07/17 02:36:59;;;;;;;5.40;3.05;;;;;;;;;;10478657;28;20511;-77
2023/07/17 02:42:03;;;;;;;6.80;3.45;;;;;;;;;;10472047;28;20540;-75
2023/07/17 02:47:06;;;;;;;6.95;3.40;;;;;;;;;;10467207;28;20040;-76
2023/07/17 02:52:09;;;;;;;6.28;3.63;;;;;;;;;;10467033;28;20041;-76
2023/07/17 02:57:14;;;;;;;6.97;3.60;;;;;;;;;;10477363;28;20041;-76
2023/07/17 03:02:17;;;;;;;8.32;4.53;;;;;;;;;;10477449;28;20494;-76
2023/07/17 03:07:20;;;;;;;9.05;4.32;;;;;;;;;;10487532;28;20040;-76
2023/07/17 03:12:24;;;;;;;11.82;5.10;;;;;;;;;;10493523;28;20462;-76
2023/07/17 03:17:27;;;;;;;11.45;5.22;;;;;;;;;;10486094;28;20039;-76
2023/07/17 03:22:29;;;;;;;9.43;4.60;;;;;;;;;;10477078;28;20470;-75
2023/07/17 03:27:33;;;;;;;8.32;4.47;;;;;;;;;;10477985;28;20498;-76
2023/07/17 03:32:38;;;;;;;10.85;4.40;;;;;;;;;;10483091;28;20044;-77
2023/07/17 03:37:41;;;;;;;13.88;4.25;;;;;;;;;;10479009;28;20085;-76
2023/07/17 03:42:45;;;;;;;10.07;3.97;;;;;;;;;;10481611;28;20379;-76
2023/07/17 03:47:50;;;;;;;9.85;4.75;;;;;;;;;;10486635;28;20494;-76
2023/07/17 03:52:53;;;;;;;9.40;4.10;;;;;;;;;;10482111;28;20111;-76
2023/07/17 03:57:57;;;;;;;10.45;4.85;;;;;;;;;;10487192;28;20040;-76
2023/07/17 04:03:00;;;;;;;11.70;5.65;;;;;;;;;;10493173;28;20048;-76
2023/07/17 04:08:03;;;;;;;9.73;4.80;;;;;;;;;;10491070;28;20064;-76
2023/07/17 04:13:07;;;;;;;11.07;4.70;;;;;;;;;;10484940;28;20058;-75
2023/07/17 04:18:10;;;;;;;13.10;5.35;;;;;;;;;;10489117;28;20048;-76
2023/07/17 04:23:15;;;;;;;9.57;4.40;;;;;;;;;;10486365;28;20044;-76
2023/07/17 04:28:19;;;;;;;10.18;4.60;;;;;;;;;;10480125;28;20039;-76
2023/07/17 04:33:27;;;;;;;8.75;4.75;;;;;;;;;;10481814;28;20079;-76
2023/07/17 04:38:30;;;;;;;10.07;5.13;;;;;;;;;;10502071;28;20033;-76
2023/07/17 04:43:35;;;;;;;10.20;5.55;;;;;;;;;;10477188;28;20044;-76
2023/07/17 04:48:38;;;;;;;10.57;5.05;;;;;;;;;;10485351;28;20043;-75
2023/07/17 04:53:41;;;;;;;11.05;5.10;;;;;;;;;;10479389;28;20470;-76
2023/07/17 04:58:45;;;;;;;10.55;5.55;;;;;;;;;;10481244;28;20071;-76
2023/07/17 05:03:48;;;;;;;11.77;5.40;;;;;;;;;;10482343;28;20048;-76
2023/07/17 05:08:51;;;;;;;10.60;5.40;;;;;;;;;;10478045;28;20493;-78
2023/07/17 05:13:55;;;;;;;13.85;5.82;;;;;;;;;;10475830;28;20028;-80
2023/07/17 05:18:58;;;;;;;9.98;5.40;;;;;;;;;;10482213;28;20046;-79
2023/07/17 05:24:02;;;;;;;8.15;4.57;;;;;;;;;;10478096;28;20060;-79
2023/07/17 05:29:07;;;;;;;10.38;5.57;;;;;;;;;;10478252;28;20111;-77
2023/07/17 05:34:09;;;;;;;13.00;5.47;;;;;;;;;;10471585;28;20144;-78
2023/07/17 05:39:12;;;;;;;9.05;5.20;;;;;;;;;;10476616;28;20665;-79
2023/07/17 05:44:16;;;;;;;6.63;3.65;;;;;;;;;;10489790;28;20048;-75
2023/07/17 05:49:19;;;;;;;10.48;5.03;;;;;;;;;;10498828;28;20048;-77
2023/07/17 05:54:25;;;;;;;9.75;4.43;;;;;;;;;;10475508;28;20040;-77
2023/07/17 05:59:28;;;;;;;;;;;;;;;;;;10471605;28;20047;-76
2023/07/17 06:04:32;;;;;;;5.90;3.25;;;;;;;;;;10473804;28;20377;-78
2023/07/17 06:09:35;;;;;;;7.90;3.42;;;;;;;;;;10484409;28;20046;-76
2023/07/17 06:14:38;;;;;;;6.70;3.05;;;;;;;;;;10482891;28;20115;-76
2023/07/17 06:19:42;;;;;;;5.93;2.70;;;;;;;;;;10495565;28;20039;-77
2023/07/17 06:24:45;;;;;;;11.65;2.90;;;;;;;;;;10476969;28;20093;-76
2023/07/17 06:29:48;;;;;;;5.88;3.00;;;;;;;;;;10485500;28;20040;-76
2023/07/17 06:34:52;;;;;;;7.70;3.10;;;;;;;;;;10482112;28;20139;-75
2023/07/17 06:39:55;;;;;;;5.65;2.90;;;;;;;;;;10488971;28;20055;-77
2023/07/17 06:44:57;;;;;;;6.07;3.00;;;;;;;;;;10488700;28;20052;-82
2023/07/17 06:50:05;;;;;;;6.55;3.22;;;;;;;;;;10487429;28;20060;-76
2023/07/17 06:55:09;;;;;;;10.25;3.33;;;;;;;;;;10484303;28;20045;-77
2023/07/17 07:00:12;;;;;;;;;;;;;;;;;;10481592;28;20102;-77
2023/07/17 07:05:16;;;;;;;6.55;3.03;;;;;;;;;;10474225;28;19921;-78
2023/07/17 07:10:18;;;;;;;5.28;2.72;;;;;;;;;;10486487;28;20128;-78
2023/07/17 07:15:21;;;;;;;5.40;2.40;;;;;;;;;;10485156;28;20158;-79
2023/07/17 07:20:25;;;;;;;5.10;2.70;;;;;;;;;;10478152;28;20123;-78
2023/07/17 07:25:28;;;;;;;5.15;2.45;;;;;;;;;;10485364;28;20143;-78
2023/07/17 07:30:31;;;;;;;6.70;2.50;;;;;;;;;;10481720;28;20241;-78
2023/07/17 07:35:36;;;;;;;6.90;2.70;;;;;;;;;;10479023;28;20052;-77
2023/07/17 07:40:39;;;;;;;10.90;3.20;;;;;;;;;;10480092;28;20130;-78
2023/07/17 07:45:42;;;;;;;6.55;2.58;;;;;;;;;;10476718;28;20039;-78
2023/07/17 07:50:46;;;;;;;5.40;2.28;;;;;;;;;;10478043;28;20404;-77
2023/07/17 07:55:49;;;;;;;8.07;2.95;;;;;;;;;;10485178;28;20052;-77
2023/07/17 08:00:55;;;;;;;6.47;3.00;;;;;;;;;;10483783;28;20185;-80
2023/07/17 08:05:59;;;;;;;7.95;2.67;;;;;;;;;;10482860;28;20489;-80
2023/07/17 08:11:02;;;;;;;5.22;2.70;;;;;;;;;;10485374;28;20036;-82
2023/07/17 08:16:05;;;;;;;5.55;2.70;;;;;;;;;;10492348;28;20413;-81
2023/07/17 08:21:09;;;;;;;6.35;2.80;;;;;;;;;;10484151;28;20439;-81
2023/07/17 08:26:12;;;;;;;8.80;3.22;;;;;;;;;;10481464;28;20154;-81
2023/07/17 08:31:14;;;;;;;3.85;2.55;;;;;;;;;;10483441;28;20040;-82
2023/07/17 08:36:19;;;;;;;6.07;2.47;;;;;;;;;;10484891;28;20507;-79
2023/07/17 08:41:22;;;;;;;4.57;2.90;;;;;;;;;;10479716;28;20174;-78
2023/07/17 08:46:25;;;;;;;7.90;3.13;;;;;;;;;;10480945;28;20087;-79
2023/07/17 08:51:29;;;;;;;5.60;2.67;;;;;;;;;;10473791;28;20072;-80
2023/07/17 08:56:32;;;;;;;5.82;2.70;;;;;;;;;;10480472;28;20104;-78
2023/07/17 09:01:37;;;;;;;6.32;3.42;;;;;;;;;;10486111;28;20044;-79
2023/07/17 09:06:42;;;;;;;5.78;3.25;;;;;;;;;;10479658;28;20044;-80
2023/07/17 09:11:45;;;;;;;5.07;3.00;;;;;;;;;;10480501;28;20065;-79
2023/07/17 09:16:48;;;;;;;5.05;3.45;;;;;;;;;;10473942;28;20609;-79
2023/07/17 09:21:58;;;;;;;6.38;3.45;;;;;;;;;;10469078;28;20044;-79
2023/07/17 09:27:00;;;;;;;6.82;3.58;;;;;;;;;;10472370;28;20052;-79
2023/07/17 09:32:18;;;;;;;4.47;3.00;;;;;;;;;;10474550;28;20102;-78
2023/07/17 09:37:23;;;;;;;5.70;3.22;;;;;;;;;;10475483;28;20051;-80
2023/07/17 09:42:25;;;;;;;5.70;3.15;;;;;;;;;;10476415;28;20048;-80
2023/07/17 09:47:28;;;;;;;4.60;3.20;;;;;;;;;;10483918;28;20039;-80
2023/07/17 09:52:33;;;;;;;5.28;3.25;;;;;;;;;;10474269;28;20052;-79
2023/07/17 09:57:37;;;;;;;6.25;3.08;;;;;;;;;;10477328;28;20378;-80
2023/07/17 10:02:48;;;;;;;5.65;3.45;;;;;;;;;;10481451;28;20044;-78
2023/07/17 10:07:53;;;;;;;5.57;3.50;;;;;;;;;;10478887;28;20040;-77
2023/07/17 10:12:56;;;;;;;4.57;3.10;;;;;;;;;;10491791;28;20056;-75
2023/07/17 10:17:59;;;;;;;6.53;3.10;;;;;;;;;;10477814;28;21305;-77
2023/07/17 10:23:03;;;;;;;5.53;3.70;;;;;;;;;;10487290;28;20048;-76
2023/07/17 10:28:06;;;;;;;7.60;3.72;;;;;;;;;;10486520;28;20036;-76
2023/07/17 10:33:13;;;;;;;5.43;3.40;;;;;;;;;;10481621;28;20114;-77
2023/07/17 10:38:19;;;;;;;3.92;3.45;;;;;;;;;;10486832;28;20040;-76
2023/07/17 10:43:21;;;;;;;5.50;2.97;;;;;;;;;;10481099;28;20424;-76
2023/07/17 10:48:25;;;;;;;6.47;3.80;;;;;;;;;;10486719;28;20099;-77
2023/07/17 10:53:30;;;;;;;6.53;3.75;;;;;;;;;;10486092;28;20148;-75
2023/07/17 10:58:33;;;;;;;7.35;3.28;;;;;;;;;;10484637;28;20102;-76
2023/07/17 11:03:37;;;;;;;4.88;2.53;;;;;;;;;;10492778;28;20123;-76
2023/07/17 11:08:41;;;;;;;3.55;3.00;;;;;;;;;;10476158;28;20498;-77
2023/07/17 11:13:44;;;;;;;8.77;3.42;;;;;;;;;;10483721;28;20167;-77
2023/07/17 11:18:48;;;;;;;6.13;2.95;;;;;;;;;;10488483;28;20059;-76
2023/07/17 11:23:53;;;;;;;5.22;2.97;;;;;;;;;;10483134;28;20051;-76
2023/07/17 11:28:56;;;;;;;4.93;3.00;;;;;;;;;;10472228;28;20511;-76
2023/07/17 11:33:59;;;;;;;6.80;3.60;;;;;;;;;;10481345;28;20044;-76
2023/07/17 11:39:10;;;;;;;7.88;2.97;;;;;;;;;;10488992;28;20095;-76
2023/07/17 11:44:14;;;;;;;6.72;3.08;;;;;;;;;;10486069;28;20044;-76
2023/07/17 11:49:18;;;;;;;7.65;2.90;;;;;;;;;;10478919;28;20049;-76
2023/07/17 11:54:22;;;;;;;4.78;3.20;;;;;;;;;;10484170;28;20056;-76
2023/07/17 11:59:26;;;;;;;8.18;3.20;;;;;;;;;;10475440;28;20132;-76
2023/07/17 12:04:29;;;;;;;5.97;2.90;;;;;;;;;;10477430;28;20132;-76
2023/07/17 12:09:33;;;;;;;4.55;2.80;;;;;;;;;;10477346;28;20037;-77
2023/07/17 12:14:36;;;;;;;4.47;2.50;;;;;;;;;;10454254;28;20051;-76
2023/07/17 12:19:40;;;;;;;7.00;3.30;;;;;;;;;;10468801;28;20046;-77
2023/07/17 12:24:44;;;;;;;5.78;3.70;;;;;;;;;;10470961;28;20048;-77
2023/07/17 12:29:48;;;;;;;5.43;3.80;;;;;;;;;;10467841;28;20037;-77
2023/07/17 12:34:50;;;;;;;5.00;2.75;;;;;;;;;;10475560;28;20052;-76
2023/07/17 12:39:54;;;;;;;7.93;3.53;;;;;;;;;;10473780;28;20127;-77
2023/07/17 12:44:59;;;;;;;7.18;3.50;;;;;;;;;;10473389;28;20076;-77
2023/07/17 12:50:02;;;;;;;6.78;3.85;;;;;;;;;;10471585;28;20040;-77
2023/07/17 12:55:07;;;;;;;5.95;3.55;;;;;;;;;;10468791;28;20567;-76
2023/07/17 13:00:10;;;;;;;6.20;3.33;;;;;;;;;;10469236;28;20056;-76
2023/07/17 13:05:13;;;;;;;6.20;3.63;;;;;;;;;;10468182;28;20056;-77
2023/07/17 13:10:17;;;;;;;5.75;3.22;;;;;;;;;;10464388;28;20158;-77
2023/07/17 13:15:19;;;;;;;5.60;2.58;;;;;;;;;;10470515;28;20116;-78
2023/07/17 13:20:22;;;;;;;5.55;3.28;;;;;;;;;;10469031;28;20090;-77
2023/07/17 13:25:26;;;;;;;6.38;3.15;;;;;;;;;;10476087;28;20052;-76
2023/07/17 13:30:29;;;;;;;7.03;3.17;;;;;;;;;;10456701;28;20047;-76
2023/07/17 13:35:33;;;;;;;9.18;3.30;;;;;;;;;;10465256;28;20093;-76
2023/07/17 13:40:37;;;;;;;6.05;3.22;;;;;;;;;;10467612;28;20047;-77
2023/07/17 13:45:40;;;;;;;4.22;3.13;;;;;;;;;;10478312;28;20547;-76
2023/07/17 13:50:42;;;;;;;6.25;2.92;;;;;;;;;;10477063;28;20036;-76
2023/07/17 13:55:47;;;;;;;5.28;3.08;;;;;;;;;;10478024;28;20429;-76
2023/07/17 14:00:49;;;;;;;5.95;3.25;;;;;;;;;;10471700;28;20044;-75
2023/07/17 14:05:52;;;;;;;6.60;3.30;;;;;;;;;;10473323;28;20036;-76
2023/07/17 14:10:56;;;;;;;7.25;3.13;;;;;;;;;;10479042;28;20043;-76
2023/07/17 14:15:58;;;;;;;4.80;2.90;;;;;;;;;;10473260;28;20095;-75
2023/07/17 14:21:02;;;;;;;5.68;3.25;;;;;;;;;;10479022;28;20036;-77
2023/07/17 14:26:06;;;;;;;5.32;2.95;;;;;;;;;;10473391;28;20049;-76
2023/07/17 14:31:09;;;;;;;5.38;3.22;;;;;;;;;;10474770;28;20494;-76
2023/07/17 14:36:12;;;;;;;5.95;2.92;;;;;;;;;;10476406;28;20052;-76
2023/07/17 14:41:16;;;;;;;6.18;3.17;;;;;;;;;;10483964;28;20445;-76
2023/07/17 14:46:20;;;;;;;7.00;3.30;;;;;;;;;;10471720;28;20045;-76
2023/07/17 14:51:23;;;;;;;6.43;3.20;;;;;;;;;;10467194;28;20032;-77
2023/07/17 14:56:27;;;;;;;6.22;3.50;;;;;;;;;;10473210;28;20043;-77
2023/07/17 15:01:30;;;;;;;6.97;3.70;;;;;;;;;;10477150;28;20040;-77
2023/07/17 15:06:33;;;;;;;5.78;3.53;;;;;;;;;;10477339;28;20063;-76
2023/07/17 15:11:37;;;;;;;4.85;3.22;;;;;;;;;;10481473;28;20059;-76
2023/07/17 15:16:40;;;;;;;7.30;3.85;;;;;;;;;;10490138;28;20119;-79
2023/07/17 15:21:43;;;;;;;6.22;3.53;;;;;;;;;;10478653;28;20036;-77
2023/07/17 15:26:47;;;;;;;7.38;3.60;;;;;;;;;;10480815;28;20118;-76
2023/07/17 15:31:50;;;;;;;8.32;3.80;;;;;;;;;;10483624;28;20044;-77
2023/07/17 15:36:52;;;;;;;10.00;3.75;;;;;;;;;;10487751;28;20497;-77
2023/07/17 15:41:56;;;;;;;5.85;3.15;;;;;;;;;;10480972;28;20488;-77
2023/07/17 15:46:59;;;;;;;7.32;3.92;;;;;;;;;;10486315;28;20156;-77
2023/07/17 15:52:02;;;;;;;5.13;2.83;;;;;;;;;;10478698;28;20567;-76
2023/07/17 15:57:06;;;;;;;5.10;3.10;;;;;;;;;;10456996;28;20056;-78
2023/07/17 16:02:09;;;;;;;6.25;2.80;;;;;;;;;;10479824;28;20047;-76
2023/07/17 16:07:12;;;;;;;5.90;3.63;;;;;;;;;;10491946;28;20206;-76
2023/07/17 16:12:17;;;;;;;7.07;3.55;;;;;;;;;;10461205;28;20111;-76
2023/07/17 16:17:20;;;;;;;6.38;3.25;;;;;;;;;;10473630;28;20209;-76
2023/07/17 16:22:23;;;;;;;8.20;4.30;;;;;;;;;;10459221;28;20437;-76
2023/07/17 16:27:28;;;;;;;8.65;3.55;;;;;;;;;;10472706;28;20183;-75
2023/07/17 16:32:30;;;;;;;6.25;3.63;;;;;;;;;;10486345;28;20036;-75
2023/07/17 16:37:33;;;;;;;8.35;3.60;;;;;;;;;;10485102;28;20091;-76
2023/07/17 16:42:37;;;;;;;5.70;3.45;;;;;;;;;;10490949;28;20128;-75
2023/07/17 16:47:41;;;;;;;6.50;3.10;;;;;;;;;;10490102;28;20128;-75
2023/07/17 16:52:44;;;;;;;8.48;4.20;;;;;;;;;;10480774;28;20045;-75
2023/07/17 16:57:49;;;;;;;7.05;3.30;;;;;;;;;;10481228;28;20270;-75
2023/07/17 17:02:51;;;;;;;7.97;3.15;;;;;;;;;;10486556;28;20116;-76
2023/07/17 17:07:55;;;;;;;7.90;3.50;;;;;;;;;;10479036;28;20044;-75
2023/07/17 17:12:59;;;;;;;6.60;3.53;;;;;;;;;;10477025;28;20052;-76
2023/07/17 17:18:01;;;;;;;8.05;3.70;;;;;;;;;;10478388;28;20486;-76
2023/07/17 17:23:04;;;;;;;8.48;3.63;;;;;;;;;;10477617;28;20456;-78
2023/07/17 17:28:09;;;;;;;6.28;3.05;;;;;;;;;;10478741;28;20484;-77
2023/07/17 17:33:12;;;;;;;7.97;3.75;;;;;;;;;;10484847;28;20587;-76
2023/07/17 17:38:15;;;;;;;6.60;3.63;;;;;;;;;;10480959;28;20090;-76
2023/07/17 17:43:19;;;;;;;6.43;2.90;;;;;;;;;;10481766;28;20118;-76
2023/07/17 17:48:22;;;;;;;7.15;3.35;;;;;;;;;;10480878;28;20128;-76
2023/07/17 17:53:25;;;;;;;6.93;2.92;;;;;;;;;;10476814;28;20558;-76
2023/07/17 17:58:29;;;;;;;7.93;3.53;;;;;;;;;;10481719;28;20075;-77
2023/07/17 18:03:32;;;;;;;5.78;3.22;;;;;;;;;;10478182;28;20163;-76
2023/07/17 18:08:35;;;;;;;8.52;3.38;;;;;;;;;;10480184;28;20040;-75
2023/07/17 18:13:37;;;;;;;;;;;;;;;;;;10483698;28;20087;-76
2023/07/17 18:18:41;;;;;;;5.43;3.25;;;;;;;;;;10479661;28;20003;-76
2023/07/17 18:23:44;;;;;;;6.10;2.92;;;;;;;;;;10471496;28;20095;-76
2023/07/17 18:28:47;;;;;;;6.97;3.13;;;;;;;;;;10475354;28;20040;-76
2023/07/17 18:33:52;;;;;;;5.88;3.00;;;;;;;;;;10480949;28;20105;-77
2023/07/17 18:38:54;;;;;;;6.30;3.38;;;;;;;;;;10490485;28;20044;-78
2023/07/17 18:43:57;;;;;;;6.15;3.67;;;;;;;;;;10482549;28;20082;-76
2023/07/17 18:48:59;;;;;;;;;;;;;;;;;;10483229;28;20123;-77
2023/07/17 18:54:04;;;;;;;10.80;4.03;;;;;;;;;;10478839;28;19936;-77
2023/07/17 18:59:13;;;;;;;6.55;3.45;;;;;;;;;;10477480;28;20539;-77
2023/07/17 19:04:16;;;;;;;6.80;3.30;;;;;;;;;;10475657;28;20055;-77
2023/07/17 19:09:21;;;;;;;6.70;3.10;;;;;;;;;;10483128;28;20045;-77
2023/07/17 19:14:27;;;;;;;5.93;3.08;;;;;;;;;;10483375;28;20051;-77
2023/07/17 19:19:30;;;;;;;7.43;3.50;;;;;;;;;;10484836;28;20583;-77
2023/07/17 19:24:34;;;;;;;6.05;3.22;;;;;;;;;;10483846;28;20044;-77
2023/07/17 19:29:37;;;;;;;6.05;3.20;;;;;;;;;;10479221;28;20128;-77
2023/07/17 19:34:40;;;;;;;7.70;3.72;;;;;;;;;;10484410;28;20124;-78
2023/07/17 19:39:44;;;;;;;8.63;3.60;;;;;;;;;;10483634;28;20044;-77
2023/07/17 19:44:47;;;;;;;8.05;3.50;;;;;;;;;;10480903;28;20040;-76
2023/07/17 19:49:50;;;;;;;7.95;3.55;;;;;;;;;;10476822;28;20068;-77
2023/07/17 19:54:52;;;;;;;;;;;;;;;;;;10483030;28;20090;-77
2023/07/17 19:59:56;;;;;;;7.43;3.45;;;;;;;;;;10482997;28;19963;-78
2023/07/17 20:05:00;;;;;;;11.07;3.70;;;;;;;;;;10468669;28;20033;-77
2023/07/17 20:10:04;;;;;;;6.45;3.50;;;;;;;;;;10474852;28;20063;-77
2023/07/17 20:15:09;;;;;;;11.15;4.38;;;;;;;;;;10485700;28;20052;-77
2023/07/17 20:20:13;;;;;;;7.45;4.25;;;;;;;;;;10483710;28;20052;-76
2023/07/17 20:25:16;;;;;;;6.60;3.55;;;;;;;;;;10483147;28;20041;-76
2023/07/17 20:30:22;;;;;;;;;;;;;;;;;;10481720;28;20125;-77
2023/07/17 20:35:26;;;;;;;9.40;3.55;;;;;;;;;;10480418;28;20489;-76
2023/07/17 20:40:32;;;;;;;6.18;3.50;;;;;;;;;;10485521;28;20401;-77
2023/07/17 20:45:45;;;;;;;9.20;3.88;;;;;;;;;;10482239;28;20048;-86
2023/07/17 20:51:01;;;;;;;9.70;4.05;;;;;;;;;;10477420;28;20131;-84
2023/07/17 20:56:04;;;;;;;8.10;3.28;;;;;;;;;;10479415;28;20051;-85
2023/07/17 21:01:07;;;;;;;;;;;;;;;;;;10483746;28;20068;-82
2023/07/17 21:06:11;;;;;;;7.75;3.72;;;;;;;;;;10496028;28;19925;-83
2023/07/17 21:11:14;;;;;;;8.77;3.72;;;;;;;;;;10515704;28;20033;-85
2023/07/17 21:16:18;;;;;;;;;;;;;;;;;;10530028;28;20187;-83
2023/07/17 21:21:28;;;;;;;10.27;3.85;;;;;;;;;;10527823;28;20473;-84
2023/07/17 21:26:34;;;;;;;7.80;3.25;;;;;;;;;;10496720;28;20485;-84
2023/07/17 21:31:41;;;;;;;8.02;4.20;;;;;;;;;;10483966;28;20047;-82
2023/07/17 21:36:49;;;;;;;9.25;3.72;;;;;;;;;;10489438;28;20112;-84
2023/07/17 21:41:57;;;;;;;7.40;3.45;;;;;;;;;;10503235;28;20036;-85
2023/07/17 21:47:10;;;;;;;8.23;3.55;;;;;;;;;;10467876;28;20128;-84
2023/07/17 21:52:37;;;;;;;7.20;3.40;;;;;;;;;;10468224;28;20084;-84
2023/07/17 21:57:45;;;;;;;9.18;3.83;;;;;;;;;;10483670;28;20052;-82
2023/07/17 22:03:00;;;;;;;8.43;3.47;;;;;;;;;;10487421;28;20048;-84
2023/07/17 22:08:31;;;;;;;8.52;3.63;;;;;;;;;;10472416;28;20048;-83
2023/07/17 22:13:52;;;;;;;7.57;3.60;;;;;;;;;;10490810;28;20051;-83
2023/07/17 22:19:02;;;;;;;8.88;3.50;;;;;;;;;;10505226;28;20057;-84
2023/07/17 22:24:10;;;;;;;7.78;3.97;;;;;;;;;;10482107;28;20120;-82
2023/07/17 22:29:15;;;;;;;9.27;3.72;;;;;;;;;;10491392;28;20059;-82
2023/07/17 22:34:21;;;;;;;7.10;3.45;;;;;;;;;;10504888;28;20124;-82
2023/07/17 22:39:42;;;;;;;7.68;3.58;;;;;;;;;;10488570;28;20083;-83
2023/07/17 22:45:03;;;;;;;11.48;4.07;;;;;;;;;;10483547;28;20380;-82
2023/07/17 22:50:13;;;;;;;8.20;3.80;;;;;;;;;;10463230;28;20044;-83
2023/07/17 22:55:21;;;;;;;9.40;3.90;;;;;;;;;;10493783;28;20040;-83
2023/07/17 23:00:48;;;;;;;9.07;3.70;;;;;;;;;;10470310;28;20040;-82
2023/07/17 23:05:59;;;;;;;7.40;3.47;;;;;;;;;;10478540;28;20098;-82
2023/07/17 23:11:07;;;;;;;8.05;3.60;;;;;;;;;;10466734;28;20120;-83
2023/07/17 23:16:13;;;;;;;11.57;3.88;;;;;;;;;;10482467;28;20052;-82
2023/07/17 23:21:22;;;;;;;6.00;3.42;;;;;;;;;;10481963;28;20044;-84
2023/07/17 23:26:40;;;;;;;7.97;3.53;;;;;;;;;;10485991;28;20402;-83
2023/07/17 23:31:49;;;;;;;9.75;4.00;;;;;;;;;;10481847;28;20438;-83
2023/07/17 23:36:56;;;;;;;7.18;3.22;;;;;;;;;;10482210;28;20571;-82
2023/07/17 23:42:04;;;;;;;9.13;4.07;;;;;;;;;;10484567;28;20087;-82
2023/07/17 23:47:17;;;;;;;7.38;3.33;;;;;;;;;;10496161;28;20569;-83
2023/07/17 23:57:53;;;;;;;7.38;3.58;;;;;;;;;;10495408;28;20542;-84
